Terminal Aerodrome Forecast
Issued by NWS

Home | Current Version | Previous Version | Graphics & Text | Print | Product List | Glossary On
Versions: 1 2 3 4 5 6 7 8 9 10 11 12 13 14 15 16 17 18 19 20 21
000
FTUS43 KABR 261700
TAFATY
TAF
KATY 261740Z 2618/2718 31014KT P6SM FEW250
     FM270000 34006KT P6SM SCT250
     FM270800 VRB03KT 3SM BR SCT005
     FM271600 17008KT P6SM FEW250=

USA.gov is the U.S. government's official web portal to all federal, state and local government web resources and services.